createdAt,value
2019-05-19T00:02:24.974Z,65.52
2019-05-19T00:04:55.300Z,65.20
2019-05-19T00:07:25.668Z,65.35
2019-05-19T00:09:57.841Z,65.34
2019-05-19T00:12:28.398Z,65.32
2019-05-19T00:14:58.828Z,65.48
2019-05-19T00:17:29.584Z,65.41
2019-05-19T00:20:00.516Z,65.58
2019-05-19T00:22:30.810Z,65.50
2019-05-19T00:25:01.573Z,65.43
2019-05-19T00:27:31.922Z,65.52
2019-05-19T00:30:04.559Z,65.54
2019-05-19T00:32:34.957Z,65.65
2019-05-19T00:35:07.357Z,65.60
2019-05-19T00:37:38.699Z,65.48
2019-05-19T00:40:10.204Z,65.53
2019-05-19T00:42:41.080Z,65.39
2019-05-19T00:45:12.999Z,65.66
2019-05-19T00:47:43.383Z,65.37
2019-05-19T00:50:14.530Z,65.38
2019-05-19T00:52:44.769Z,65.47
2019-05-19T00:55:15.467Z,65.66
2019-05-19T00:57:46.499Z,65.56
2019-05-19T01:00:17.400Z,65.54
2019-05-19T01:02:47.725Z,65.39
2019-05-19T01:05:20.746Z,65.38
2019-05-19T01:07:50.639Z,65.49
2019-05-19T01:10:21.262Z,65.45
2019-05-19T01:12:51.816Z,65.39
2019-05-19T01:15:23.311Z,65.54
2019-05-19T01:17:53.695Z,65.46
2019-05-19T01:20:24.746Z,65.60
2019-05-19T01:22:55.078Z,65.50
2019-05-19T01:25:25.545Z,65.76
2019-05-19T01:27:55.908Z,65.73
2019-05-19T01:30:28.785Z,65.87
2019-05-19T01:32:59.439Z,65.96
2019-05-19T01:35:30.954Z,66.07
2019-05-19T01:38:01.326Z,66.11
2019-05-19T01:40:31.651Z,66.14
2019-05-19T01:43:03.272Z,66.21
2019-05-19T01:45:33.605Z,66.32
2019-05-19T01:48:03.971Z,66.24
2019-05-19T01:50:34.802Z,66.30
2019-05-19T01:53:06.471Z,66.31
2019-05-19T01:55:36.730Z,66.24
2019-05-19T01:58:07.143Z,66.26
2019-05-19T02:00:37.468Z,66.26
2019-05-19T02:03:08.691Z,66.39
2019-05-19T02:05:39.039Z,66.55
2019-05-19T02:08:09.777Z,66.47
2019-05-19T02:10:41.120Z,66.60
2019-05-19T02:13:12.384Z,66.55
2019-05-19T02:15:43.092Z,66.60
2019-05-19T02:18:14.713Z,66.76
2019-05-19T02:20:46.141Z,66.67
2019-05-19T02:23:17.030Z,66.66
2019-05-19T02:25:48.956Z,66.53
2019-05-19T02:28:20.859Z,66.33
2019-05-19T02:30:51.337Z,66.15
2019-05-19T02:33:22.107Z,66.16
2019-05-19T02:35:52.443Z,66.34
2019-05-19T02:38:24.494Z,66.29
2019-05-19T02:40:57.201Z,66.40
2019-05-19T02:43:30.977Z,66.54
2019-05-19T02:46:02.331Z,66.48
2019-05-19T02:48:33.873Z,66.45
2019-05-19T02:51:06.410Z,66.80
2019-05-19T02:53:38.630Z,66.82
2019-05-19T02:56:09.765Z,67.16
2019-05-19T02:58:42.231Z,67.05
2019-05-19T03:01:12.664Z,67.19
2019-05-19T03:03:45.543Z,67.52
2019-05-19T03:06:16.231Z,67.36
2019-05-19T03:08:47.723Z,67.57
2019-05-19T03:11:17.997Z,67.70
2019-05-19T03:13:50.006Z,67.47
2019-05-19T03:16:20.255Z,67.49
2019-05-19T03:18:51.512Z,67.44
2019-05-19T03:21:22.199Z,67.36
2019-05-19T03:23:53.850Z,67.28
2019-05-19T03:26:24.166Z,67.37
2019-05-19T03:28:55.033Z,67.33
2019-05-19T03:31:26.941Z,67.36
2019-05-19T03:33:59.994Z,67.32
2019-05-19T03:36:30.317Z,67.48
2019-05-19T03:39:02.654Z,67.75
2019-05-19T03:41:32.975Z,67.82
2019-05-19T03:44:05.872Z,67.53
2019-05-19T03:46:36.184Z,67.52
2019-05-19T03:49:06.542Z,67.72
2019-05-19T03:51:36.993Z,67.58
2019-05-19T03:54:10.323Z,67.46
2019-05-19T03:56:40.592Z,67.40
2019-05-19T03:59:11.705Z,67.47
2019-05-19T04:01:42.029Z,67.17
2019-05-19T04:04:13.053Z,67.52
2019-05-19T04:06:43.538Z,67.49
2019-05-19T04:09:17.148Z,67.85
2019-05-19T04:11:46.196Z,67.60
2019-05-19T04:14:16.993Z,67.64
2019-05-19T04:16:49.685Z,67.83
2019-05-19T04:19:20.011Z,67.65
2019-05-19T04:21:51.608Z,67.32
2019-05-19T04:24:22.385Z,67.19
2019-05-19T04:26:52.684Z,67.23
2019-05-19T04:29:23.208Z,66.75
2019-05-19T04:31:53.577Z,66.46
2019-05-19T04:34:24.020Z,66.34
2019-05-19T04:36:57.684Z,65.84
2019-05-19T04:39:30.627Z,65.34
2019-05-19T04:42:01.207Z,65.26
2019-05-19T04:44:33.389Z,64.85
2019-05-19T04:47:04.938Z,64.32
2019-05-19T04:49:35.757Z,64.07
2019-05-19T04:52:07.457Z,64.47
2019-05-19T04:54:38.178Z,64.75
2019-05-19T04:57:08.552Z,64.51
2019-05-19T04:59:39.983Z,64.30
2019-05-19T05:02:10.424Z,64.45
2019-05-19T05:04:45.515Z,64.41
2019-05-19T05:07:15.882Z,64.59
2019-05-19T05:09:46.583Z,64.42
2019-05-19T05:12:16.947Z,64.63
2019-05-19T05:14:47.319Z,64.66
2019-05-19T05:17:19.013Z,65.27
2019-05-19T05:19:49.431Z,65.61
2019-05-19T05:22:22.135Z,65.52
2019-05-19T05:24:52.859Z,65.28
2019-05-19T05:27:23.285Z,65.42
2019-05-19T05:29:53.854Z,65.27
2019-05-19T05:32:24.187Z,65.05
2019-05-19T05:34:55.082Z,64.60
2019-05-19T05:37:25.806Z,64.42
2019-05-19T05:39:56.953Z,64.17
2019-05-19T05:42:31.566Z,63.81
2019-05-19T05:45:02.110Z,63.60
2019-05-19T05:47:32.855Z,64.29
2019-05-19T05:50:03.967Z,64.30
2019-05-19T05:52:38.562Z,63.81
2019-05-19T05:55:08.271Z,63.81
2019-05-19T05:57:39.038Z,63.54
2019-05-19T06:00:11.172Z,63.32
2019-05-19T06:02:41.904Z,64.17
2019-05-19T06:05:12.477Z,63.78
2019-05-19T06:07:42.817Z,63.37
2019-05-19T06:10:14.132Z,63.66
2019-05-19T06:12:46.111Z,63.22
2019-05-19T06:15:18.269Z,62.87
2019-05-19T06:17:51.264Z,62.59
2019-05-19T06:20:21.621Z,62.73
2019-05-19T06:22:56.621Z,62.41
2019-05-19T06:25:25.160Z,62.50
2019-05-19T06:27:55.413Z,61.88
2019-05-19T06:30:25.773Z,61.41
2019-05-19T06:32:57.889Z,61.04
2019-05-19T06:35:29.092Z,60.90
2019-05-19T06:38:00.476Z,60.84
2019-05-19T06:40:31.482Z,60.63
2019-05-19T06:43:02.109Z,60.43
2019-05-19T06:45:32.591Z,59.89
2019-05-19T06:48:03.098Z,59.47
2019-05-19T06:50:33.658Z,59.24
2019-05-19T06:53:13.353Z,58.93
2019-05-19T06:55:36.873Z,58.53
2019-05-19T06:58:07.225Z,58.52
2019-05-19T07:00:37.575Z,58.47
2019-05-19T07:03:08.496Z,58.17
2019-05-19T07:05:39.216Z,57.63
2019-05-19T07:08:09.592Z,57.31
2019-05-19T07:10:40.424Z,57.04
2019-05-19T07:13:12.266Z,56.41
2019-05-19T07:15:43.006Z,55.89
2019-05-19T07:18:13.350Z,54.96
2019-05-19T07:20:43.700Z,54.75
2019-05-19T07:23:27.392Z,54.10
2019-05-19T07:25:46.903Z,53.45
2019-05-19T07:28:17.196Z,53.15
2019-05-19T07:30:48.039Z,52.69
2019-05-19T07:33:18.364Z,52.64
2019-05-19T07:35:48.721Z,52.55
2019-05-19T07:38:21.611Z,51.79
2019-05-19T07:40:52.494Z,51.50
2019-05-19T07:43:23.306Z,50.49
2019-05-19T07:45:54.776Z,49.04
2019-05-19T07:48:26.761Z,48.65
2019-05-19T07:50:57.675Z,48.45
2019-05-19T07:53:41.914Z,48.19
2019-05-19T07:56:00.742Z,46.07
2019-05-19T07:58:31.061Z,43.34
2019-05-19T08:01:01.924Z,42.19
2019-05-19T08:03:32.750Z,41.87
2019-05-19T08:06:06.018Z,40.74
2019-05-19T08:08:36.582Z,39.28
2019-05-19T08:11:07.362Z,37.99
2019-05-19T08:13:37.917Z,37.57
2019-05-19T08:16:10.924Z,37.35
2019-05-19T08:18:41.424Z,37.24
2019-05-19T08:21:11.971Z,37.70
2019-05-19T08:23:42.284Z,38.72
2019-05-19T08:26:13.399Z,38.85
2019-05-19T08:28:43.747Z,38.97
2019-05-19T08:31:15.721Z,39.36
2019-05-19T08:33:46.157Z,40.14
2019-05-19T08:36:18.164Z,40.54
2019-05-19T08:38:48.911Z,40.18
2019-05-19T08:41:21.828Z,39.86
2019-05-19T08:43:53.485Z,39.62
2019-05-19T08:46:25.047Z,39.20
2019-05-19T08:48:58.328Z,38.67
2019-05-19T08:51:28.148Z,38.94
2019-05-19T08:53:58.486Z,39.08
2019-05-19T08:56:31.381Z,39.02
2019-05-19T08:59:01.716Z,39.05
2019-05-19T09:01:32.079Z,38.79
2019-05-19T09:04:02.520Z,39.05
2019-05-19T09:06:33.148Z,39.71
2019-05-19T09:09:04.961Z,40.13
2019-05-19T09:11:37.898Z,41.02
2019-05-19T09:14:08.231Z,40.87
2019-05-19T09:16:43.034Z,38.74
2019-05-19T09:19:13.355Z,36.39
2019-05-19T09:21:44.129Z,35.76
2019-05-19T09:24:29.298Z,36.11
2019-05-19T09:26:46.910Z,36.55
2019-05-19T09:29:17.312Z,36.01
2019-05-19T09:31:48.048Z,34.61
2019-05-19T09:34:19.424Z,33.95
2019-05-19T09:36:50.133Z,33.83
2019-05-19T09:39:21.705Z,34.39
2019-05-19T09:41:52.899Z,35.63
2019-05-19T09:44:23.217Z,36.55
2019-05-19T09:46:55.524Z,37.12
2019-05-19T09:49:32.380Z,37.60
2019-05-19T09:52:05.998Z,38.50
2019-05-19T09:54:45.450Z,38.30
2019-05-19T09:57:11.347Z,38.48
2019-05-19T09:59:41.713Z,38.11
2019-05-19T10:02:14.724Z,37.23
2019-05-19T10:04:45.481Z,35.74
2019-05-19T10:07:16.728Z,35.26
2019-05-19T10:10:05.677Z,34.91
2019-05-19T10:12:36.226Z,35.80
2019-05-19T10:15:07.355Z,36.47
2019-05-19T10:17:40.165Z,36.71
2019-05-19T10:20:11.726Z,36.21
2019-05-19T10:22:44.891Z,34.67
2019-05-19T10:25:22.112Z,34.99
2019-05-19T10:27:48.459Z,34.64
2019-05-19T10:30:19.196Z,35.05
2019-05-19T10:32:50.005Z,35.91
2019-05-19T10:35:20.325Z,35.48
2019-05-19T10:37:52.210Z,36.95
2019-05-19T10:40:22.815Z,37.37
2019-05-19T10:42:54.250Z,37.99
2019-05-19T10:45:24.835Z,38.04
2019-05-19T10:47:57.713Z,37.83
2019-05-19T10:50:28.034Z,35.92
2019-05-19T10:52:58.896Z,34.50
2019-05-19T10:55:36.661Z,34.47
2019-05-19T10:58:02.747Z,34.54
2019-05-19T11:00:33.869Z,36.05
2019-05-19T11:03:04.382Z,36.38
2019-05-19T11:05:34.813Z,37.69
2019-05-19T11:08:08.697Z,38.80
2019-05-19T11:10:38.727Z,39.27
2019-05-19T11:13:09.362Z,38.97
2019-05-19T11:15:39.676Z,39.42
2019-05-19T11:18:10.327Z,38.97
2019-05-19T11:20:40.753Z,39.04
2019-05-19T11:23:11.163Z,39.00
2019-05-19T11:25:51.181Z,38.99
2019-05-19T11:28:15.135Z,39.33
2019-05-19T11:30:45.558Z,39.39
2019-05-19T11:33:16.745Z,38.88
2019-05-19T11:35:47.085Z,39.29
2019-05-19T11:38:18.219Z,39.50
2019-05-19T11:40:48.636Z,39.04
2019-05-19T11:43:19.758Z,37.49
2019-05-19T11:45:50.080Z,36.53
2019-05-19T11:48:21.964Z,36.01
2019-05-19T11:50:52.669Z,35.94
2019-05-19T11:53:23.039Z,35.56
2019-05-19T11:56:05.765Z,35.87
2019-05-19T11:58:26.526Z,35.57
2019-05-19T12:00:56.917Z,35.40
2019-05-19T12:03:27.897Z,35.18
2019-05-19T12:05:58.318Z,35.71
2019-05-19T12:08:30.395Z,36.82
2019-05-19T12:11:00.802Z,37.92
2019-05-19T12:13:34.915Z,38.06
2019-05-19T12:16:05.146Z,37.97
2019-05-19T12:18:36.159Z,37.74
2019-05-19T12:21:06.684Z,37.12
2019-05-19T12:23:37.643Z,36.23
2019-05-19T12:26:22.234Z,35.97
2019-05-19T12:28:41.667Z,36.26
2019-05-19T12:31:12.481Z,35.72
2019-05-19T12:33:51.544Z,36.17
2019-05-19T12:36:15.263Z,36.14
2019-05-19T12:38:46.851Z,35.36
2019-05-19T12:41:17.182Z,35.41
2019-05-19T12:43:48.721Z,36.57
2019-05-19T12:46:19.438Z,37.48
2019-05-19T12:48:51.833Z,37.70
2019-05-19T12:51:22.152Z,37.99
2019-05-19T12:53:52.574Z,38.67
2019-05-19T12:56:37.213Z,38.17
2019-05-19T12:58:55.670Z,38.15
2019-05-19T13:01:26.205Z,38.54
2019-05-19T13:03:56.951Z,37.99
2019-05-19T13:06:28.757Z,38.49
2019-05-19T13:08:59.635Z,37.98
2019-05-19T13:11:29.953Z,37.61
2019-05-19T13:14:01.016Z,37.37
2019-05-19T13:16:31.342Z,37.67
2019-05-19T13:19:02.554Z,37.89
2019-05-19T13:21:32.866Z,37.96
2019-05-19T13:24:04.076Z,37.99
2019-05-19T13:26:34.482Z,37.32
2019-05-19T13:29:05.713Z,37.59
2019-05-19T13:31:36.127Z,37.89
2019-05-19T13:34:06.756Z,37.27
2019-05-19T13:36:40.160Z,36.99
2019-05-19T13:39:11.315Z,36.04
2019-05-19T13:41:41.680Z,35.82
2019-05-19T13:44:13.158Z,35.74
2019-05-19T13:46:43.590Z,35.57
2019-05-19T13:49:15.441Z,35.21
2019-05-19T13:51:45.758Z,35.45
2019-05-19T13:54:16.182Z,35.21
2019-05-19T13:56:46.878Z,35.23
2019-05-19T13:59:19.497Z,36.51
2019-05-19T14:01:49.820Z,37.07
2019-05-19T14:04:20.873Z,37.41
2019-05-19T14:06:51.697Z,37.16
2019-05-19T14:09:23.848Z,37.19
2019-05-19T14:11:54.187Z,37.36
2019-05-19T14:14:24.512Z,37.39
2019-05-19T14:16:54.879Z,36.73
2019-05-19T14:19:27.407Z,36.46
2019-05-19T14:21:58.171Z,36.80
2019-05-19T14:24:29.026Z,37.57
2019-05-19T14:26:59.261Z,37.87
2019-05-19T14:29:33.505Z,37.53
2019-05-19T14:32:03.945Z,38.08
2019-05-19T14:34:36.092Z,38.98
2019-05-19T14:37:07.561Z,38.88
2019-05-19T14:39:39.416Z,39.77
2019-05-19T14:42:11.553Z,39.91
2019-05-19T14:44:44.153Z,39.94
2019-05-19T14:47:14.572Z,39.14
2019-05-19T14:49:45.746Z,39.00
2019-05-19T14:52:16.751Z,39.34
2019-05-19T14:54:49.063Z,39.61
2019-05-19T14:57:19.416Z,39.87
2019-05-19T14:59:49.975Z,39.74
2019-05-19T15:02:20.405Z,39.34
2019-05-19T15:04:51.246Z,39.27
2019-05-19T15:07:23.300Z,39.61
2019-05-19T15:09:54.921Z,39.78
2019-05-19T15:12:25.248Z,40.22
2019-05-19T15:14:55.608Z,39.37
2019-05-19T15:17:26.644Z,39.56
2019-05-19T15:19:57.330Z,39.83
2019-05-19T15:22:28.703Z,39.61
2019-05-19T15:24:59.508Z,39.97
2019-05-19T15:27:30.784Z,40.84
2019-05-19T15:30:12.601Z,41.79
2019-05-19T15:32:34.517Z,42.67
2019-05-19T15:35:06.685Z,43.17
2019-05-19T15:37:38.036Z,43.33
2019-05-19T15:40:10.151Z,42.87
2019-05-19T15:42:40.828Z,42.36
2019-05-19T15:45:13.670Z,42.68
2019-05-19T15:47:43.989Z,43.05
2019-05-19T15:50:17.727Z,43.23
2019-05-19T15:52:48.063Z,43.18
2019-05-19T15:55:18.907Z,42.88
2019-05-19T15:57:49.259Z,42.88
2019-05-19T16:00:23.165Z,43.09
2019-05-19T16:02:54.544Z,42.90
2019-05-19T16:05:25.399Z,43.24
2019-05-19T16:07:56.236Z,43.77
2019-05-19T16:10:27.389Z,43.16
2019-05-19T16:12:57.718Z,43.84
2019-05-19T16:15:33.686Z,44.12
2019-05-19T16:18:04.258Z,44.48
2019-05-19T16:20:35.552Z,44.24
2019-05-19T16:23:05.892Z,43.81
2019-05-19T16:25:38.301Z,43.94
2019-05-19T16:28:08.785Z,43.98
2019-05-19T16:30:43.738Z,44.48
2019-05-19T16:33:14.095Z,44.65
2019-05-19T16:35:45.926Z,44.86
2019-05-19T16:38:16.181Z,45.32
2019-05-19T16:40:47.524Z,45.03
2019-05-19T16:43:17.877Z,44.98
2019-05-19T16:45:49.277Z,45.44
2019-05-19T16:48:19.588Z,45.72
2019-05-19T16:50:50.368Z,46.39
2019-05-19T16:53:21.110Z,46.43
2019-05-19T16:55:51.614Z,46.32
2019-05-19T16:58:22.145Z,46.18
2019-05-19T17:00:53.385Z,46.55
2019-05-19T17:03:23.692Z,46.40
2019-05-19T17:05:54.547Z,46.60
2019-05-19T17:08:24.949Z,46.47
2019-05-19T17:10:57.135Z,46.79
2019-05-19T17:13:27.561Z,46.77
2019-05-19T17:16:00.731Z,46.80
2019-05-19T17:18:32.810Z,47.12
2019-05-19T17:21:04.451Z,47.24
2019-05-19T17:23:35.126Z,46.93
2019-05-19T17:26:05.907Z,47.01
2019-05-19T17:28:36.161Z,47.09
2019-05-19T17:31:08.013Z,47.10
2019-05-19T17:33:38.336Z,47.18
2019-05-19T17:36:09.067Z,47.31
2019-05-19T17:38:39.499Z,47.92
2019-05-19T17:41:10.941Z,47.71
2019-05-19T17:43:41.275Z,47.96
2019-05-19T17:46:12.428Z,48.21
2019-05-19T17:48:42.825Z,48.10
2019-05-19T17:51:15.182Z,48.12
2019-05-19T17:53:46.781Z,48.36
2019-05-19T17:56:19.705Z,48.39
2019-05-19T17:58:52.891Z,48.06
2019-05-19T18:01:24.044Z,48.24
2019-05-19T18:03:54.798Z,48.13
2019-05-19T18:06:28.285Z,48.52
2019-05-19T18:08:57.641Z,49.21
2019-05-19T18:11:30.177Z,49.48
2019-05-19T18:14:00.538Z,49.73
2019-05-19T18:16:30.928Z,49.97
2019-05-19T18:19:01.602Z,50.65
2019-05-19T18:21:41.208Z,50.48
2019-05-19T18:24:13.540Z,51.06
2019-05-19T18:26:45.115Z,51.63
2019-05-19T18:29:15.442Z,51.90
2019-05-19T18:31:46.790Z,51.91
2019-05-19T18:34:19.994Z,51.98
2019-05-19T18:36:51.103Z,52.03
2019-05-19T18:39:21.445Z,52.26
2019-05-19T18:41:52.431Z,51.94
2019-05-19T18:44:22.759Z,52.27
2019-05-19T18:46:53.537Z,51.98
2019-05-19T18:49:23.920Z,52.81
2019-05-19T18:51:55.478Z,52.67
2019-05-19T18:54:25.852Z,52.72
2019-05-19T18:56:57.467Z,53.30
2019-05-19T18:59:28.232Z,53.79
2019-05-19T19:02:01.025Z,52.81
2019-05-19T19:04:31.354Z,52.89
2019-05-19T19:07:01.725Z,53.57
2019-05-19T19:09:32.703Z,54.03
2019-05-19T19:12:03.245Z,54.01
2019-05-19T19:14:34.430Z,53.66
2019-05-19T19:17:05.317Z,54.00
2019-05-19T19:19:36.252Z,53.92
2019-05-19T19:22:07.990Z,54.36
2019-05-19T19:24:39.718Z,54.39
2019-05-19T19:27:10.148Z,54.68
2019-05-19T19:29:41.413Z,53.75
2019-05-19T19:32:11.855Z,54.76
2019-05-19T19:34:42.258Z,55.15
2019-05-19T19:37:12.542Z,55.26
2019-05-19T19:39:43.150Z,55.35
2019-05-19T19:42:13.707Z,55.36
2019-05-19T19:44:44.576Z,55.74
2019-05-19T19:47:15.062Z,55.99
2019-05-19T19:49:46.035Z,55.55
2019-05-19T19:52:18.128Z,55.91
2019-05-19T19:54:48.427Z,55.92
2019-05-19T19:57:19.053Z,55.92
2019-05-19T19:59:50.615Z,56.05
2019-05-19T20:02:20.912Z,56.25
2019-05-19T20:04:53.097Z,56.52
2019-05-19T20:07:23.465Z,56.66
2019-05-19T20:09:53.944Z,57.00
2019-05-19T20:12:24.611Z,57.21
2019-05-19T20:14:54.971Z,57.17
2019-05-19T20:17:25.559Z,57.24
2019-05-19T20:19:56.179Z,57.40
2019-05-19T20:22:29.240Z,57.46
2019-05-19T20:24:59.572Z,57.54
2019-05-19T20:27:29.922Z,57.52
2019-05-19T20:30:00.236Z,57.53
2019-05-19T20:32:31.967Z,57.51
2019-05-19T20:35:02.369Z,57.69
2019-05-19T20:37:32.764Z,57.13
2019-05-19T20:40:03.440Z,57.58
2019-05-19T20:42:34.289Z,57.44
2019-05-19T20:45:05.217Z,57.68
2019-05-19T20:47:36.697Z,57.67
2019-05-19T20:50:08.168Z,57.34
2019-05-19T20:52:40.820Z,57.11
2019-05-19T20:55:11.355Z,57.30
2019-05-19T20:57:41.721Z,57.77
2019-05-19T21:00:12.631Z,57.89
2019-05-19T21:02:43.080Z,58.23
2019-05-19T21:05:13.416Z,57.65
2019-05-19T21:07:46.207Z,56.22
2019-05-19T21:10:16.538Z,57.21
2019-05-19T21:12:46.956Z,57.57
2019-05-19T21:15:18.021Z,57.90
2019-05-19T21:17:51.194Z,57.83
2019-05-19T21:20:22.561Z,57.37
2019-05-19T21:22:52.951Z,57.10
2019-05-19T21:25:23.491Z,57.43
2019-05-19T21:27:53.748Z,57.09
2019-05-19T21:30:24.843Z,57.15
2019-05-19T21:32:55.653Z,57.33
2019-05-19T21:35:26.412Z,57.38
2019-05-19T21:37:56.735Z,57.64
2019-05-19T21:40:27.368Z,57.94
2019-05-19T21:42:59.306Z,58.03
2019-05-19T21:45:29.905Z,57.88
2019-05-19T21:48:01.942Z,58.15
2019-05-19T21:50:32.514Z,57.94
2019-05-19T21:53:06.367Z,57.70
2019-05-19T21:55:35.662Z,58.18
2019-05-19T21:58:06.450Z,58.13
2019-05-19T22:00:37.613Z,58.47
2019-05-19T22:03:10.299Z,58.37
2019-05-19T22:05:52.963Z,58.48
2019-05-19T22:08:14.968Z,58.46
2019-05-19T22:10:47.164Z,58.48
2019-05-19T22:13:19.337Z,58.73
2019-05-19T22:15:50.801Z,58.58
2019-05-19T22:18:21.120Z,58.65
2019-05-19T22:20:51.495Z,58.93
2019-05-19T22:23:22.767Z,59.04
2019-05-19T22:25:54.542Z,58.91
2019-05-19T22:28:24.878Z,58.88
2019-05-19T22:30:56.251Z,58.87
2019-05-19T22:33:26.626Z,58.95
2019-05-19T22:35:56.947Z,58.93
2019-05-19T22:38:27.692Z,59.06
2019-05-19T22:40:58.626Z,59.09
2019-05-19T22:43:29.161Z,58.96
2019-05-19T22:45:59.738Z,59.08
2019-05-19T22:48:30.854Z,59.22
2019-05-19T22:51:02.634Z,59.26
2019-05-19T22:53:34.380Z,59.09
2019-05-19T22:56:05.808Z,59.31
2019-05-19T22:58:36.073Z,59.23
2019-05-19T23:01:08.421Z,59.33
2019-05-19T23:03:39.249Z,59.63
2019-05-19T23:06:09.550Z,59.64
2019-05-19T23:08:40.116Z,59.58
2019-05-19T23:11:10.893Z,59.46
2019-05-19T23:13:41.718Z,59.53
2019-05-19T23:16:12.201Z,59.62
2019-05-19T23:18:42.487Z,59.53
2019-05-19T23:21:12.812Z,59.62
2019-05-19T23:23:45.272Z,59.57
2019-05-19T23:26:15.733Z,59.86
2019-05-19T23:28:46.159Z,59.84
2019-05-19T23:31:16.588Z,60.05
2019-05-19T23:33:48.444Z,60.40
2019-05-19T23:36:18.766Z,60.53
2019-05-19T23:38:50.026Z,60.63
2019-05-19T23:41:20.539Z,60.76
2019-05-19T23:43:52.006Z,60.78
2019-05-19T23:46:23.389Z,61.00
2019-05-19T23:48:54.576Z,61.27
2019-05-19T23:51:26.134Z,61.38
2019-05-19T23:53:58.674Z,61.62
2019-05-19T23:56:29.039Z,61.64
2019-05-19T23:59:00.685Z,61.81
